Aeroporto :
LOGIN :

Iscrizione | Disclaimer

   EN    FR    IT 

 










Sommario :    VFR   VFR Marginale   IFR   IFR Intensivo   IFR Molto Intensivo
Visibilità : 
Base nubi : 
>= 8 km
>= 3000ft
5 / 8 km
1000 / 3000 ft
1500m / 5 km
500 / 1000 ft
800 / 1500m
200 / 500 ft
< 800m
< 200 ft
Simboli :   Temporali  Nebbia  Neve Forte  Precipitazioni Forti  Vento > 20 kt
SIGMETs :   Varie  Temporali  Ghiacco  Turbolenza  Onda orograficha  Ceneri Vulcaniche







- Altitudine del aeroporto : 659 ft
- Codice IATA : LYN
- Carte del aeroporto


LFLY - Lyon Bron

ULTIMO METAR :
  • 231000Z AUTO 28003KT 250V320 9999 -RA FEW029 SCT037 BKN054 16/12 Q0998 NOSIG

METARs OBSOLETI :
  • 230930Z AUTO VRB03KT 9999 -RA FEW031 SCT041 BKN048 15/11 Q0998 NOSIG
  • 230900Z AUTO 24004KT 210V270 9999 -RA NSC 14/12 Q0998 NOSIG
  • 230830Z AUTO 24008KT 9999 -RA FEW043 BKN066 OVC080 13/11 Q0998 NOSIG
  • 230800Z AUTO 20007KT 9999 -RA NSC 14/11 Q0998 NOSIG
  • 230730Z AUTO 21009KT 9000 RA FEW049/// BKN056/// OVC068/// ///TCU 14/11 Q0998 BECMG NSW NSC

TAF TAF LFLY
Valido dal 23 a 06 ore il 24 a 06 ore UTC


230500Z 2306/2406 18009KT CAVOK
TEMPO 2312/2319 FEW070TCU
PROB30
TEMPO 2314/2317 18015G25KT -SHRA BKN070TCU
BECMG 2403/2406 18015G25KT BKN050
ATIS : +33 4 72 15 87 96
Nessun NOTAM noto per questo aeroporto.



MetMap, La meteo Aeronautica in un colpo d'occhio ! - Copyright ORBIFLY Dicembre 2007 - Disclaimer

ORBIFLY MET'MAP TEAM :

Programmazione e sviluppo : Alexandra Zaïnal
Concezione e sviluppo : Baudouin d'Aumeries
Co-Programmazione e sviluppo : Marc-Olivier Méhu
Supporto tecnico e logistico : Manuel Goepfert
Aiuto per la traduzione : Arnaldo La Scala

Contatto : metmap@orbifly.com




FONTI E CREDITI :

   NOAA